ADDS METAR Data INFO
IDs: Format: Raw Decoded Include TAF

Data at: 1150 UTC 17 Dec 2017

METAR for:KEDC (Austin/Executive Arp, TX, US)
Text:KEDC 171135Z AUTO 00000KT 3SM BR FEW004 OVC011 07/07 A3006 RMK AO2
Temperature: 7.0°C ( 45°F)
Dewpoint: 7.0°C ( 45°F) [RH = 100%]
Pressure (altimeter):30.06 inches Hg (1018.0 mb)
Winds:calm
Visibility: 3 sm ( 5 km)
Ceiling:1100 feet AGL
Clouds: few clouds at 400 feet AGL, overcast cloud deck at 1100 feet AGL
Weather:BR (mist)
QC Flag:automated observation with no human augmentation